Maersk Wakamatsu — 3EZG — position and weather

sailwx.info

Track history (hours):
 
Tides and Currents Weather Stations Pressure Air Temp Water Temp Dewpoint Dewpoint Depression Visibility Wind Speed Wind Dir Waves Ship Positions

Maersk Wakamatsu

Last reported at 2018-Feb-19 10:25 UTC. Time now 2018-Feb-25 20:13 UTC.
Position N 11°17' W 074°42'.

Length 172 m; draft 7.6 m.

Type: Cargo ship. MMSI: 370484000.

Date/timePositionNaut miles runAvg speedWind from/ knotsBaromVisibWave heightAir tempDewpointWater temp
2018-Feb-19 10:25N 11°17' W 074°42'1216.7
2018-Feb-19 09:42N 11°12' W 074°53'316.3
2018-Feb-19 09:30N 11°11' W 074°56'11 0.5
2018-Feb-18 13:38N 11°05' W 075°05'319.2
2018-Feb-18 13:29N 11°05' W 075°02'816.9
2018-Feb-18 13:00N 11°06' W 074°54'5 9.4
2018-Feb-18 12:30N 11°03' W 074°50'510.4
2018-Feb-18 11:59N 11°00' W 074°46'2 4.2
2018-Feb-18 11:29N 10°58' W 074°46'0 0.0
2018-Feb-18 10:59N 10°58' W 074°46'0 0.0
2018-Feb-18 10:29N 10°58' W 074°46'0 0.0
2018-Feb-18 09:59N 10°58' W 074°46'0 0.0
2018-Feb-18 09:29N 10°58' W 074°46'0 0.0
2018-Feb-18 08:59N 10°58' W 074°46'0 0.0
2018-Feb-18 08:29N 10°58' W 074°46'0 0.0
2018-Feb-18 07:59N 10°58' W 074°46'0 0.0
2018-Feb-18 07:29N 10°58' W 074°46'0 0.0
2018-Feb-18 06:59N 10°58' W 074°46'0 0.0
2018-Feb-18 06:29N 10°58' W 074°46'0 0.0
2018-Feb-18 05:59N 10°58' W 074°46'0 0.0
2018-Feb-18 05:29N 10°58' W 074°46'0 0.0
2018-Feb-18 04:59N 10°58' W 074°46'0 0.0
2018-Feb-18 04:29N 10°58' W 074°46'0 0.0
2018-Feb-18 03:59N 10°58' W 074°46'0 0.0
2018-Feb-18 03:29N 10°58' W 074°46'0 0.0
2018-Feb-18 02:59N 10°58' W 074°46'0 0.0
2018-Feb-18 02:29N 10°58' W 074°46'0 0.0
2018-Feb-18 01:59N 10°58' W 074°46'0 0.0
2018-Feb-18 01:29N 10°58' W 074°46'0 0.0
2018-Feb-18 00:59N 10°58' W 074°46'0 0.0
2018-Feb-18 00:29N 10°58' W 074°46'0 0.0
2018-Feb-17 23:59N 10°58' W 074°46'0 0.0
2018-Feb-17 23:29N 10°58' W 074°46'0 0.0
2018-Feb-17 22:59N 10°58' W 074°46'0 0.0
2018-Feb-17 22:29N 10°58' W 074°46'0 0.0
2018-Feb-17 21:59N 10°58' W 074°46'0 0.0
2018-Feb-17 21:26N 10°58' W 074°46'0 0.0
2018-Feb-17 20:59N 10°58' W 074°46'0 0.0
2018-Feb-17 20:29N 10°58' W 074°46'0 0.0
2018-Feb-17 19:59N 10°58' W 074°46'0 0.0
2018-Feb-17 19:29N 10°58' W 074°46'0 0.0
2018-Feb-17 18:59N 10°58' W 074°46'0 0.0
2018-Feb-17 18:29N 10°58' W 074°46'0 0.0
2018-Feb-17 17:59N 10°58' W 074°46'1 1.1
2018-Feb-17 17:30N 10°59' W 074°45'4 7.6
2018-Feb-17 17:01N 11°02' W 074°48'2 3.8
2018-Feb-17 16:30N 11°03' W 074°49'4 7.2
2018-Feb-17 15:59N 11°06' W 074°51'3 6.5
2018-Feb-17 15:30N 11°07' W 074°54'4 8.1
2018-Feb-17 15:00N 11°07' W 074°58'5 9.8
2018-Feb-17 14:30N 11°06' W 075°03'29615.1
2018-Feb-16 18:57N 09°33' W 079°48'716.6
2018-Feb-16 18:30N 09°27' W 079°53'5 9.6
2018-Feb-16 18:01N 09°22' W 079°53'0 0.7
2018-Feb-16 17:30N 09°22' W 079°53'0 0.0
2018-Feb-16 16:59N 09°22' W 079°53'0 0.0
2018-Feb-16 16:23N 09°22' W 079°53'0 0.0
2018-Feb-16 15:59N 09°22' W 079°53'0 0.0
2018-Feb-16 15:29N 09°22' W 079°53'0 0.0
2018-Feb-16 14:59N 09°22' W 079°53'0 0.0
2018-Feb-16 14:29N 09°22' W 079°53'0 0.0
2018-Feb-16 13:59N 09°22' W 079°53'0 0.0
2018-Feb-16 13:29N 09°22' W 079°53'0 0.0
2018-Feb-16 12:59N 09°22' W 079°53'0 0.0
2018-Feb-16 12:29N 09°22' W 079°53'0 0.0
2018-Feb-16 11:59N 09°22' W 079°53'0 0.0
2018-Feb-16 11:29N 09°22' W 079°53'0 0.0
2018-Feb-16 10:59N 09°22' W 079°53'0 0.0
2018-Feb-16 10:29N 09°22' W 079°53'0 0.0
2018-Feb-16 09:59N 09°22' W 079°53'0 0.0
2018-Feb-16 09:29N 09°22' W 079°53'0 0.0
2018-Feb-16 08:59N 09°22' W 079°53'0 0.0
2018-Feb-16 08:29N 09°22' W 079°53'0 0.0
2018-Feb-16 07:59N 09°22' W 079°53'0 0.0
2018-Feb-16 07:29N 09°22' W 079°53'0 0.0
2018-Feb-16 06:59N 09°22' W 079°53'0 0.0
2018-Feb-16 06:29N 09°22' W 079°53'0 0.0
2018-Feb-16 05:56N 09°22' W 079°53'0 0.0
2018-Feb-16 05:29N 09°22' W 079°53'0 0.0
2018-Feb-16 04:53N 09°22' W 079°53'0 0.0
2018-Feb-16 04:29N 09°22' W 079°53'0 0.0
2018-Feb-16 03:59N 09°22' W 079°53'0 0.0
2018-Feb-16 03:29N 09°22' W 079°53'0 0.0
2018-Feb-16 03:00N 09°22' W 079°53'0 0.7
2018-Feb-16 02:31N 09°22' W 079°53'0 0.3
2018-Feb-16 01:58N 09°22' W 079°53'0 0.0
2018-Feb-16 01:28N 09°22' W 079°53'0 0.0
2018-Feb-16 00:58N 09°22' W 079°53'0 0.0
2018-Feb-16 00:28N 09°22' W 079°53'0 0.0
2018-Feb-15 23:58N 09°22' W 079°53'0 0.0
2018-Feb-15 23:28N 09°22' W 079°53'0 0.0
2018-Feb-15 22:58N 09°22' W 079°53'0 0.0
2018-Feb-15 22:28N 09°22' W 079°53'0 0.0
2018-Feb-15 21:58N 09°22' W 079°53'0 0.0
2018-Feb-15 21:28N 09°22' W 079°53'0 0.0
2018-Feb-15 20:58N 09°22' W 079°53'0 0.0
2018-Feb-15 20:28N 09°22' W 079°53'0 0.0
2018-Feb-15 19:58N 09°22' W 079°53'0 0.0
2018-Feb-15 19:28N 09°22' W 079°53'0 0.0
2018-Feb-15 18:58N 09°22' W 079°53'0 0.0
2018-Feb-15 18:28N 09°22' W 079°53'0 0.0
2018-Feb-15 17:58N 09°22' W 079°53'0 0.0
2018-Feb-15 17:28N 09°22' W 079°53'0 0.0
2018-Feb-15 16:58N 09°22' W 079°53'0 0.0
2018-Feb-15 16:28N 09°22' W 079°53'0 0.0
2018-Feb-15 15:58N 09°22' W 079°53'0 0.0
2018-Feb-15 15:28N 09°22' W 079°53'0 0.0
2018-Feb-15 14:58N 09°22' W 079°53'0 0.0
2018-Feb-15 14:28N 09°22' W 079°53'0 0.0
2018-Feb-15 13:58N 09°22' W 079°53'0 0.0
2018-Feb-15 13:29N 09°22' W 079°53'0 0.0
2018-Feb-15 12:59N 09°22' W 079°53'0 0.0
2018-Feb-15 12:29N 09°22' W 079°53'0 0.0
2018-Feb-15 11:59N 09°22' W 079°53'0 0.0
2018-Feb-15 11:29N 09°22' W 079°53'0 0.0
2018-Feb-15 10:59N 09°22' W 079°53'0 0.0
2018-Feb-15 10:29N 09°22' W 079°53'0 0.0
2018-Feb-15 10:00N 09°22' W 079°53'0 0.8
2018-Feb-15 09:30N 09°22' W 079°53'2 4.4
2018-Feb-15 09:00N 09°24' W 079°54'1 2.5
2018-Feb-15 08:29N 09°26' W 079°54'0 0.6
2018-Feb-15 08:00N 09°26' W 079°54'5 9.3
2018-Feb-15 07:30N 09°30' W 079°53'30617.9
2018-Feb-14 14:21N 11°14' W 074°60'719.4
2018-Feb-14 14:00N 11°14' W 074°53'1019.1
2018-Feb-14 13:29N 11°14' W 074°43'8 0.5
2018-Feb-13 20:07N 11°12' W 074°35'514.3
2018-Feb-13 19:44N 11°11' W 074°40'414.7
2018-Feb-13 19:30N 11°11' W 074°44'714.1
2018-Feb-13 19:00N 11°09' W 074°51'3 6.1
2018-Feb-13 18:30N 11°06' W 074°51'612.7
2018-Feb-13 18:00N 11°01' W 074°47'4 1.2
2018-Feb-13 15:09N 10°58' W 074°46'0 0.0
2018-Feb-13 13:00N 10°58' W 074°46'0 0.0
2018-Feb-13 12:30N 10°58' W 074°46'0 0.0
2018-Feb-12 19:42N 10°58' W 074°46'0 0.0
2018-Feb-12 19:30N 10°58' W 074°46'0 0.0
2018-Feb-12 16:52N 10°58' W 074°46'0 1.2
2018-Feb-12 16:29N 10°59' W 074°45'4 7.9
2018-Feb-12 15:59N 11°02' W 074°48'4 8.3
2018-Feb-12 15:30N 11°05' W 074°51'3 6.9
2018-Feb-12 15:00N 11°07' W 074°53'2 4.5
2018-Feb-12 14:29N 11°08' W 074°56'2 3.3
2018-Feb-12 13:59N 11°06' W 074°55'0 0.2
2018-Feb-12 13:30N 11°06' W 074°55'0 0.0
2018-Feb-12 13:00N 11°06' W 074°55'0 0.0
2018-Feb-12 12:30N 11°06' W 074°55'  
Track history (hours):
 
Tides and Currents Weather Stations Pressure Air Temp Water Temp Dewpoint Dewpoint Depression Visibility Wind Speed Wind Dir Waves Ship Positions

Maersk Wakamatsu

Last reported at 2018-Feb-19 10:25 UTC. Time now 2018-Feb-25 20:13 UTC.
Position N 11°17' W 074°42'.

Length 172 m; draft 7.6 m.

Type: Cargo ship. MMSI: 370484000.

Date/timePositionNaut miles runAvg speedWind from/ knotsBaromVisibWave heightAir tempDewpointWater temp
2018-Feb-19 10:25N 11°17' W 074°42'1216.7
2018-Feb-19 09:42N 11°12' W 074°53'316.3
2018-Feb-19 09:30N 11°11' W 074°56'11 0.5
2018-Feb-18 13:38N 11°05' W 075°05'319.2
2018-Feb-18 13:29N 11°05' W 075°02'816.9
2018-Feb-18 13:00N 11°06' W 074°54'5 9.4
2018-Feb-18 12:30N 11°03' W 074°50'510.4
2018-Feb-18 11:59N 11°00' W 074°46'2 4.2
2018-Feb-18 11:29N 10°58' W 074°46'0 0.0
2018-Feb-18 10:59N 10°58' W 074°46'0 0.0
2018-Feb-18 10:29N 10°58' W 074°46'0 0.0
2018-Feb-18 09:59N 10°58' W 074°46'0 0.0
2018-Feb-18 09:29N 10°58' W 074°46'0 0.0
2018-Feb-18 08:59N 10°58' W 074°46'0 0.0
2018-Feb-18 08:29N 10°58' W 074°46'0 0.0
2018-Feb-18 07:59N 10°58' W 074°46'0 0.0
2018-Feb-18 07:29N 10°58' W 074°46'0 0.0
2018-Feb-18 06:59N 10°58' W 074°46'0 0.0
2018-Feb-18 06:29N 10°58' W 074°46'0 0.0
2018-Feb-18 05:59N 10°58' W 074°46'0 0.0
2018-Feb-18 05:29N 10°58' W 074°46'0 0.0
2018-Feb-18 04:59N 10°58' W 074°46'0 0.0
2018-Feb-18 04:29N 10°58' W 074°46'0 0.0
2018-Feb-18 03:59N 10°58' W 074°46'0 0.0
2018-Feb-18 03:29N 10°58' W 074°46'0 0.0
2018-Feb-18 02:59N 10°58' W 074°46'0 0.0
2018-Feb-18 02:29N 10°58' W 074°46'0 0.0
2018-Feb-18 01:59N 10°58' W 074°46'0 0.0
2018-Feb-18 01:29N 10°58' W 074°46'0 0.0
2018-Feb-18 00:59N 10°58' W 074°46'0 0.0
2018-Feb-18 00:29N 10°58' W 074°46'0 0.0
2018-Feb-17 23:59N 10°58' W 074°46'0 0.0
2018-Feb-17 23:29N 10°58' W 074°46'0 0.0
2018-Feb-17 22:59N 10°58' W 074°46'0 0.0
2018-Feb-17 22:29N 10°58' W 074°46'0 0.0
2018-Feb-17 21:59N 10°58' W 074°46'0 0.0
2018-Feb-17 21:26N 10°58' W 074°46'0 0.0
2018-Feb-17 20:59N 10°58' W 074°46'0 0.0
2018-Feb-17 20:29N 10°58' W 074°46'0 0.0
2018-Feb-17 19:59N 10°58' W 074°46'0 0.0
2018-Feb-17 19:29N 10°58' W 074°46'0 0.0
2018-Feb-17 18:59N 10°58' W 074°46'0 0.0
2018-Feb-17 18:29N 10°58' W 074°46'0 0.0
2018-Feb-17 17:59N 10°58' W 074°46'1 1.1
2018-Feb-17 17:30N 10°59' W 074°45'4 7.6
2018-Feb-17 17:01N 11°02' W 074°48'2 3.8
2018-Feb-17 16:30N 11°03' W 074°49'4 7.2
2018-Feb-17 15:59N 11°06' W 074°51'3 6.5
2018-Feb-17 15:30N 11°07' W 074°54'4 8.1
2018-Feb-17 15:00N 11°07' W 074°58'5 9.8
2018-Feb-17 14:30N 11°06' W 075°03'29615.1
2018-Feb-16 18:57N 09°33' W 079°48'716.6
2018-Feb-16 18:30N 09°27' W 079°53'5 9.6
2018-Feb-16 18:01N 09°22' W 079°53'0 0.7
2018-Feb-16 17:30N 09°22' W 079°53'0 0.0
2018-Feb-16 16:59N 09°22' W 079°53'0 0.0
2018-Feb-16 16:23N 09°22' W 079°53'0 0.0
2018-Feb-16 15:59N 09°22' W 079°53'0 0.0
2018-Feb-16 15:29N 09°22' W 079°53'0 0.0
2018-Feb-16 14:59N 09°22' W 079°53'0 0.0
2018-Feb-16 14:29N 09°22' W 079°53'0 0.0
2018-Feb-16 13:59N 09°22' W 079°53'0 0.0
2018-Feb-16 13:29N 09°22' W 079°53'0 0.0
2018-Feb-16 12:59N 09°22' W 079°53'0 0.0
2018-Feb-16 12:29N 09°22' W 079°53'0 0.0
2018-Feb-16 11:59N 09°22' W 079°53'0 0.0
2018-Feb-16 11:29N 09°22' W 079°53'0 0.0
2018-Feb-16 10:59N 09°22' W 079°53'0 0.0
2018-Feb-16 10:29N 09°22' W 079°53'0 0.0
2018-Feb-16 09:59N 09°22' W 079°53'0 0.0
2018-Feb-16 09:29N 09°22' W 079°53'0 0.0
2018-Feb-16 08:59N 09°22' W 079°53'0 0.0
2018-Feb-16 08:29N 09°22' W 079°53'0 0.0
2018-Feb-16 07:59N 09°22' W 079°53'0 0.0
2018-Feb-16 07:29N 09°22' W 079°53'0 0.0
2018-Feb-16 06:59N 09°22' W 079°53'0 0.0
2018-Feb-16 06:29N 09°22' W 079°53'0 0.0
2018-Feb-16 05:56N 09°22' W 079°53'0 0.0
2018-Feb-16 05:29N 09°22' W 079°53'0 0.0
2018-Feb-16 04:53N 09°22' W 079°53'0 0.0
2018-Feb-16 04:29N 09°22' W 079°53'0 0.0
2018-Feb-16 03:59N 09°22' W 079°53'0 0.0
2018-Feb-16 03:29N 09°22' W 079°53'0 0.0
2018-Feb-16 03:00N 09°22' W 079°53'0 0.7
2018-Feb-16 02:31N 09°22' W 079°53'0 0.3
2018-Feb-16 01:58N 09°22' W 079°53'0 0.0
2018-Feb-16 01:28N 09°22' W 079°53'0 0.0
2018-Feb-16 00:58N 09°22' W 079°53'0 0.0
2018-Feb-16 00:28N 09°22' W 079°53'0 0.0
2018-Feb-15 23:58N 09°22' W 079°53'0 0.0
2018-Feb-15 23:28N 09°22' W 079°53'0 0.0
2018-Feb-15 22:58N 09°22' W 079°53'0 0.0
2018-Feb-15 22:28N 09°22' W 079°53'0 0.0
2018-Feb-15 21:58N 09°22' W 079°53'0 0.0
2018-Feb-15 21:28N 09°22' W 079°53'0 0.0
2018-Feb-15 20:58N 09°22' W 079°53'0 0.0
2018-Feb-15 20:28N 09°22' W 079°53'0 0.0
2018-Feb-15 19:58N 09°22' W 079°53'0 0.0
2018-Feb-15 19:28N 09°22' W 079°53'0 0.0
2018-Feb-15 18:58N 09°22' W 079°53'0 0.0
2018-Feb-15 18:28N 09°22' W 079°53'0 0.0
2018-Feb-15 17:58N 09°22' W 079°53'0 0.0
2018-Feb-15 17:28N 09°22' W 079°53'0 0.0
2018-Feb-15 16:58N 09°22' W 079°53'0 0.0
2018-Feb-15 16:28N 09°22' W 079°53'0 0.0
2018-Feb-15 15:58N 09°22' W 079°53'0 0.0
2018-Feb-15 15:28N 09°22' W 079°53'0 0.0
2018-Feb-15 14:58N 09°22' W 079°53'0 0.0
2018-Feb-15 14:28N 09°22' W 079°53'0 0.0
2018-Feb-15 13:58N 09°22' W 079°53'0 0.0
2018-Feb-15 13:29N 09°22' W 079°53'0 0.0
2018-Feb-15 12:59N 09°22' W 079°53'0 0.0
2018-Feb-15 12:29N 09°22' W 079°53'0 0.0
2018-Feb-15 11:59N 09°22' W 079°53'0 0.0
2018-Feb-15 11:29N 09°22' W 079°53'0 0.0
2018-Feb-15 10:59N 09°22' W 079°53'0 0.0
2018-Feb-15 10:29N 09°22' W 079°53'0 0.0
2018-Feb-15 10:00N 09°22' W 079°53'0 0.8
2018-Feb-15 09:30N 09°22' W 079°53'2 4.4
2018-Feb-15 09:00N 09°24' W 079°54'1 2.5
2018-Feb-15 08:29N 09°26' W 079°54'0 0.6
2018-Feb-15 08:00N 09°26' W 079°54'5 9.3
2018-Feb-15 07:30N 09°30' W 079°53'30617.9
2018-Feb-14 14:21N 11°14' W 074°60'719.4
2018-Feb-14 14:00N 11°14' W 074°53'1019.1
2018-Feb-14 13:29N 11°14' W 074°43'8 0.5
2018-Feb-13 20:07N 11°12' W 074°35'514.3
2018-Feb-13 19:44N 11°11' W 074°40'414.7
2018-Feb-13 19:30N 11°11' W 074°44'714.1
2018-Feb-13 19:00N 11°09' W 074°51'3 6.1
2018-Feb-13 18:30N 11°06' W 074°51'612.7
2018-Feb-13 18:00N 11°01' W 074°47'4 1.2
2018-Feb-13 15:09N 10°58' W 074°46'0 0.0
2018-Feb-13 13:00N 10°58' W 074°46'0 0.0
2018-Feb-13 12:30N 10°58' W 074°46'0 0.0
2018-Feb-12 19:42N 10°58' W 074°46'0 0.0
2018-Feb-12 19:30N 10°58' W 074°46'0 0.0
2018-Feb-12 16:52N 10°58' W 074°46'0 1.2
2018-Feb-12 16:29N 10°59' W 074°45'4 7.9
2018-Feb-12 15:59N 11°02' W 074°48'4 8.3
2018-Feb-12 15:30N 11°05' W 074°51'3 6.9
2018-Feb-12 15:00N 11°07' W 074°53'2 4.5
2018-Feb-12 14:29N 11°08' W 074°56'2 3.3
2018-Feb-12 13:59N 11°06' W 074°55'0 0.2
2018-Feb-12 13:30N 11°06' W 074°55'0 0.0
2018-Feb-12 13:00N 11°06' W 074°55'0 0.0
2018-Feb-12 12:30N 11°06' W 074°55'  

Dump ship's entire track history